Relevés horaires Chievres (Belgique)


Relevés horaires à Chievres - Vendredi 13 Oct. 2017
Heure UTC1 Température [°C] Vent [km/h] Hum. [%] Pres.4 [hPa] Visi. [Km] Nébu. [octa] Préc.5 [mm] Cond.
2m. Res. Ros. Dir.2 Vit. Moy. Raf.3
23:00 13.6 13.6 12.6 SSO 5.6 -- 7.4 94 1026.4(0.4/3h) 16 -- -- --
22:00 13.0 13 12.3 SSO 5.6 -- 5.6 96 1026.4(0.4/3h) 14 -- -- --
21:00 13.5 13.5 12.6 S 5.6 -- 7.4 94 1026(0.3/3h) 15 -- -- --
20:00 13.9 13.9 12.9 SSO 5.6 -- 5.6 94 1025.9(0.5/3h) 19 -- -- --
19:00 14.1 14.1 12.8 S 3.7 -- 5.6 92 1025.9(0.2/3h) 17 -- -- --
18:00 15.2 15.2 13.4 S 5.6 -- 16.7 89 1025.7(0.2/3h) 20 -- -- --
17:00 16.3 16.3 13.8 S 3.7 -- 7.4 85 1025.4(-0.3/3h) 18 -- -- --
16:00 19.6 19.6 13.8 SO 5.6 -- 11.1 69 1025.5(0.1/3h) 20 -- -- --
15:00 20.0 20.0 13.7 OSO 5.6 -- 16.7 67 1025.2(-0.3/3h) 20 -- -- --
14:00 19.0 19.0 13.8 OSO 5.6 -- 13.0 72 1025.5(-0.3/3h) 20 -- -- --
13:00 19.2 19.2 13.3 SO 9.3 -- 16.7 69 1025.5(-0.5/3h) 20 -- -- --
12:00 19.3 19.3 14.2 OSO 7.4 -- 14.8 72 1025.7(0.0/3h) 20 -- -- --
11:00 17.5 17.5 13.8 SO 7.4 -- 11.1 79 1026(0.6/3h) 20 -- -- --
10:00 17.1 17.1 14.3 SO 7.4 -- 13.0 84 1026.2(0.8/3h) 19 -- -- --
09:00 16.6 16.6 14.6 SO 9.3 -- 13.0 88 1025.7(1.0/3h) 19 -- -- --
08:00 15.8 15.8 14.8 SSO 7.4 -- 11.1 94 1025.4(0.8/3h) 14 -- -- --
07:00 15.1 15.1 14.5 SSO 5.6 -- 7.4 96 1025.2(0.7/3h) 12 -- -- --
06:00 14.9 14.9 14.3 SO 3.7 -- 13.0 96 1024.7(0.5/3h) 12 -- 0.1/12h
NA
05:00 14.7 14.7 14.2 SSO 5.6 -- 7.4 97 1024.5(0.4/3h) 13 -- -- NA
04:00 14.6 14.6 14.3 SO 3.7 -- 11.1 98 1024.5(0.2/3h) 18 -- -- Il y a une bruine modérée et intermittente à la station au moment de l'observation
03:00 14.8 14.7 14.1 SSO 7.4 -- 13.0 96 1024.2(0.0/3h) 9 -- -- --
02:00 14.6 14.6 14.2 SO 5.6 -- 13.0 97 1024.2(0.0/3h) 12 -- -- --
01:00 14.4 14.3 13.6 SSO 7.4 -- 11.1 95 1024.2(0.0/3h) 15 -- -- --
00:00 13.5 13.5 12.8 SSO 3.7 -- 5.6 96 1024.2(-0.1/3h) 16 -- trace/6h
NA

1 Coordinated Universal Time. Actuellement il est 01:00 locale et 23:00 UTC.

2 Le vent souffle depuis la direction indiquée vers la direction oposée.

3 Les rafales max. sont disponible 40 min après l'heure du relevé.

4 Pour les stations d'altitude (plus de 600m) le géopotentiel du niveau le plus proche de la pression obligatoire est indiqué.

5 Les stations disposant d'un diffuseur peuvent indiquer "trace". Cela signifie que des précipitations ont touchés le sol mais que la quantité est inférieure à 0.1 mm.

Récapitulatif de la journée
Température [°C] Vent [km/h] Ensoleillement4 [h] Precipitations totale5 [mm] Pression [Hpa]
Min1 Max.2 Moy.3 Max. Min Max.
9.6 20.4 0 16.7 0 h 0 min 0 1024.2 1026.4

1 Température minimale relevée entre 18:00 UTC la veille et 18:00 UTC le jour donné.

2 Température maximale relevée entre 06:00 UTC le jour donné et 06:00 UTC le lendemain.

3 Vent moyen de la journée basé sur les relevés horaires.

4 Ensoleillement en heures relevé entre 06:00 UTC la veille et 06:00 UTC le jour donné.

5 Précipitations totales tombées entre 06:00 UTC la jour donné et 06:00 UTC le lendemain.

Graphiques horaires